createdAt,value
2019-05-03T00:01:43.852Z,89.70
2019-05-03T00:04:12.088Z,89.96
2019-05-03T00:06:39.572Z,89.68
2019-05-03T00:09:08.898Z,89.84
2019-05-03T00:11:37.794Z,90.47
2019-05-03T00:14:05.217Z,90.03
2019-05-03T00:16:34.875Z,90.31
2019-05-03T00:19:03.392Z,89.86
2019-05-03T00:21:32.574Z,89.69
2019-05-03T00:24:00.126Z,89.10
2019-05-03T00:26:27.494Z,90.18
2019-05-03T00:28:54.886Z,90.22
2019-05-03T00:31:22.685Z,90.19
2019-05-03T00:33:53.429Z,90.39
2019-05-03T00:36:29.409Z,90.45
2019-05-03T00:39:02.018Z,89.63
2019-05-03T00:41:32.036Z,89.96
2019-05-03T00:43:59.454Z,90.37
2019-05-03T00:46:26.744Z,90.64
2019-05-03T00:48:54.489Z,90.30
2019-05-03T00:51:22.539Z,91.18
2019-05-03T00:53:53.035Z,90.30
2019-05-03T00:56:21.603Z,89.44
2019-05-03T00:58:55.968Z,90.07
2019-05-03T01:01:23.292Z,89.68
2019-05-03T01:03:52.651Z,89.30
2019-05-03T01:06:22.275Z,88.57
2019-05-03T01:08:49.570Z,88.88
2019-05-03T01:11:19.808Z,88.43
2019-05-03T01:13:47.222Z,87.55
2019-05-03T01:16:16.867Z,87.94
2019-05-03T01:18:44.326Z,87.84
2019-05-03T01:21:11.860Z,88.00
2019-05-03T01:23:42.106Z,87.58
2019-05-03T01:26:11.880Z,88.17
2019-05-03T01:28:39.311Z,86.18
2019-05-03T01:31:06.763Z,85.93
2019-05-03T01:33:34.157Z,87.29
2019-05-03T01:36:02.766Z,88.17
2019-05-03T01:38:33.367Z,89.98
2019-05-03T01:41:01.706Z,90.63
2019-05-03T01:43:29.269Z,90.84
2019-05-03T01:45:56.589Z,91.29
2019-05-03T01:48:42.106Z,91.02
2019-05-03T01:51:32.724Z,90.43
2019-05-03T01:54:01.694Z,89.85
2019-05-03T01:56:29.152Z,89.71
2019-05-03T01:58:56.444Z,90.33
2019-05-03T02:01:36.515Z,90.67
2019-05-03T02:04:12.697Z,90.06
2019-05-03T02:06:40.077Z,90.32
2019-05-03T02:09:07.804Z,90.74
2019-05-03T02:11:35.112Z,90.74
2019-05-03T02:14:03.618Z,90.64
2019-05-03T02:16:32.518Z,89.85
2019-05-03T02:18:59.936Z,89.67
2019-05-03T02:21:27.236Z,89.99
2019-05-03T02:23:55.637Z,89.57
2019-05-03T02:26:22.914Z,89.45
2019-05-03T02:28:50.196Z,89.20
2019-05-03T02:31:17.520Z,90.13
2019-05-03T02:33:45.037Z,90.42
2019-05-03T02:36:13.670Z,90.17
2019-05-03T02:38:42.900Z,90.51
2019-05-03T02:41:13.211Z,89.62
2019-05-03T02:43:45.287Z,89.82
2019-05-03T02:46:36.156Z,89.43
2019-05-03T02:49:26.532Z,88.73
2019-05-03T02:51:55.430Z,88.94
2019-05-03T02:54:26.998Z,88.77
2019-05-03T02:56:55.766Z,89.04
2019-05-03T02:59:22.466Z,88.23
2019-05-03T03:01:49.807Z,88.10
2019-05-03T03:04:17.192Z,89.15
2019-05-03T03:06:45.510Z,88.00
2019-05-03T03:09:16.447Z,87.39
2019-05-03T03:11:45.745Z,87.07
2019-05-03T03:16:37.710Z,87.26
2019-05-03T03:19:06.638Z,86.54
2019-05-03T03:21:37.998Z,86.07
2019-05-03T03:24:11.943Z,86.22
2019-05-03T03:26:43.336Z,85.66
2019-05-03T03:29:16.103Z,85.34
2019-05-03T03:32:18.410Z,85.24
2019-05-03T03:34:56.843Z,85.04
2019-05-03T03:37:20.900Z,85.03
2019-05-03T03:39:48.628Z,85.80
2019-05-03T03:42:18.249Z,85.83
2019-05-03T03:44:45.792Z,85.81
2019-05-03T03:47:16.693Z,85.14
2019-05-03T03:49:46.309Z,84.78
2019-05-03T03:52:15.999Z,84.91
2019-05-03T03:54:45.678Z,85.15
2019-05-03T03:57:16.114Z,84.48
2019-05-03T03:59:45.429Z,85.37
2019-05-03T04:02:15.839Z,85.53
2019-05-03T04:04:44.918Z,85.87
2019-05-03T04:07:11.576Z,84.78
2019-05-03T04:09:39.617Z,84.72
2019-05-03T04:12:07.024Z,85.49
2019-05-03T04:14:48.716Z,85.55
2019-05-03T04:17:29.390Z,85.80
2019-05-03T04:19:57.240Z,85.79
2019-05-03T04:22:25.442Z,85.20
2019-05-03T04:24:55.253Z,84.94
2019-05-03T04:27:26.832Z,85.54
2019-05-03T04:29:51.874Z,85.62
2019-05-03T04:32:19.183Z,85.40
2019-05-03T04:34:46.510Z,84.64
2019-05-03T04:37:16.309Z,84.98
2019-05-03T04:39:45.674Z,84.27
2019-05-03T04:42:12.568Z,84.33
2019-05-03T04:44:40.069Z,85.51
2019-05-03T04:47:07.560Z,86.31
2019-05-03T04:49:36.264Z,87.13
2019-05-03T04:52:05.771Z,87.18
2019-05-03T04:54:38.868Z,86.74
2019-05-03T04:57:06.741Z,86.12
2019-05-03T04:59:35.872Z,85.58
2019-05-03T05:02:06.060Z,85.16
2019-05-03T05:04:35.500Z,85.80
2019-05-03T05:07:02.335Z,84.87
2019-05-03T05:09:29.599Z,85.03
2019-05-03T05:11:56.941Z,84.54
2019-05-03T05:14:25.842Z,84.39
2019-05-03T05:16:55.664Z,84.91
2019-05-03T05:19:36.524Z,84.93
2019-05-03T05:22:08.939Z,82.61
2019-05-03T05:24:36.203Z,82.83
2019-05-03T05:27:09.949Z,82.66
2019-05-03T05:29:37.860Z,81.35
2019-05-03T05:32:05.364Z,79.63
2019-05-03T05:34:34.782Z,77.64
2019-05-03T05:37:01.966Z,78.92
2019-05-03T05:39:29.224Z,77.24
2019-05-03T05:41:56.478Z,76.71
2019-05-03T05:44:24.775Z,76.46
2019-05-03T05:47:25.417Z,75.80
2019-05-03T05:50:05.378Z,73.92
2019-05-03T05:52:34.523Z,72.60
2019-05-03T05:55:16.016Z,73.21
2019-05-03T05:58:02.873Z,72.74
2019-05-03T06:00:27.738Z,72.51
2019-05-03T06:02:55.231Z,70.41
2019-05-03T06:05:22.768Z,69.38
2019-05-03T06:08:25.119Z,69.56
2019-05-03T06:11:10.669Z,68.99
2019-05-03T06:13:48.594Z,69.77
2019-05-03T06:16:24.553Z,69.73
2019-05-03T06:19:17.181Z,68.52
2019-05-03T06:22:09.721Z,68.35
2019-05-03T06:24:41.651Z,67.21
2019-05-03T06:27:29.009Z,67.09
2019-05-03T06:29:59.715Z,63.91
2019-05-03T06:32:30.834Z,64.82
2019-05-03T06:34:59.145Z,66.61
2019-05-03T06:37:29.070Z,62.84
2019-05-03T06:39:56.331Z,61.91
2019-05-03T06:42:25.321Z,62.98
2019-05-03T06:44:54.518Z,64.86
2019-05-03T06:47:25.157Z,64.52
2019-05-03T06:49:55.288Z,63.37
2019-05-03T06:52:27.594Z,64.93
2019-05-03T06:54:51.808Z,66.71
2019-05-03T06:57:19.552Z,64.67
2019-05-03T06:59:57.906Z,66.47
2019-05-03T07:03:04.795Z,66.47
2019-05-03T07:05:51.412Z,67.37
2019-05-03T07:08:47.306Z,67.41
2019-05-03T07:11:16.792Z,66.55
2019-05-03T07:13:44.945Z,64.62
2019-05-03T07:16:12.467Z,62.04
2019-05-03T07:18:39.984Z,61.45
2019-05-03T07:21:07.369Z,59.39
2019-05-03T07:23:35.133Z,60.63
2019-05-03T07:26:02.564Z,55.76
2019-05-03T07:28:29.890Z,55.15
2019-05-03T07:30:59.163Z,56.20
2019-05-03T07:33:31.247Z,56.12
2019-05-03T07:35:58.496Z,58.32
2019-05-03T07:38:25.783Z,62.93
2019-05-03T07:40:54.981Z,64.94
2019-05-03T07:43:24.380Z,63.73
2019-05-03T07:45:51.509Z,59.77
2019-05-03T07:48:18.757Z,54.54
2019-05-03T07:50:46.166Z,55.46
2019-05-03T07:53:15.105Z,55.29
2019-05-03T07:56:08.050Z,56.66
2019-05-03T07:58:35.555Z,54.66
2019-05-03T08:01:09.585Z,56.46
2019-05-03T08:03:34.966Z,54.34
2019-05-03T08:06:04.764Z,57.28
2019-05-03T08:08:32.093Z,54.70
2019-05-03T08:10:59.841Z,57.67
2019-05-03T08:13:27.329Z,57.98
2019-05-03T08:15:55.755Z,58.22
2019-05-03T08:18:25.634Z,61.56
2019-05-03T08:20:55.393Z,59.96
2019-05-03T08:23:27.418Z,60.67
2019-05-03T08:25:51.942Z,54.97
2019-05-03T08:28:20.254Z,52.82
2019-05-03T08:30:58.555Z,53.15
2019-05-03T08:33:44.826Z,53.65
2019-05-03T08:36:12.209Z,49.80
2019-05-03T08:38:39.512Z,49.75
2019-05-03T08:41:09.266Z,53.41
2019-05-03T08:43:36.538Z,53.47
2019-05-03T08:46:04.584Z,55.08
2019-05-03T08:48:32.186Z,52.93
2019-05-03T08:50:59.438Z,53.07
2019-05-03T08:53:27.766Z,56.23
2019-05-03T08:55:55.381Z,54.31
2019-05-03T08:58:25.820Z,55.67
2019-05-03T09:00:54.712Z,56.07
2019-05-03T09:03:22.105Z,52.21
2019-05-03T09:05:49.413Z,56.38
2019-05-03T09:08:16.626Z,48.44
2019-05-03T09:11:09.239Z,48.56
2019-05-03T09:14:02.110Z,49.92
2019-05-03T09:16:29.510Z,50.56
2019-05-03T09:18:56.805Z,51.68
2019-05-03T09:21:25.496Z,54.13
2019-05-03T09:23:55.214Z,55.16
2019-05-03T09:26:22.133Z,54.62
2019-05-03T09:28:50.457Z,54.09
2019-05-03T09:31:17.729Z,49.55
2019-05-03T09:33:45.312Z,50.72
2019-05-03T09:36:14.727Z,48.70
2019-05-03T09:38:42.146Z,49.44
2019-05-03T09:41:09.597Z,49.68
2019-05-03T09:43:36.935Z,51.44
2019-05-03T09:46:05.113Z,50.87
2019-05-03T09:48:34.552Z,51.75
2019-05-03T09:51:01.927Z,51.67
2019-05-03T09:53:35.012Z,51.36
2019-05-03T09:56:02.245Z,51.56
2019-05-03T09:58:29.516Z,50.78
2019-05-03T10:00:58.341Z,52.11
2019-05-03T10:03:26.459Z,54.38
2019-05-03T10:05:55.363Z,53.14
2019-05-03T10:08:25.246Z,53.93
2019-05-03T10:11:09.942Z,54.81
2019-05-03T10:13:37.393Z,55.97
2019-05-03T10:16:06.007Z,52.15
2019-05-03T10:18:34.929Z,49.56
2019-05-03T10:21:03.142Z,51.98
2019-05-03T10:23:38.828Z,51.30
2019-05-03T10:26:06.522Z,52.82
2019-05-03T10:28:33.865Z,55.11
2019-05-03T10:31:01.255Z,48.97
2019-05-03T10:33:35.354Z,49.65
2019-05-03T10:36:02.140Z,49.07
2019-05-03T10:38:29.512Z,46.08
2019-05-03T10:40:56.894Z,49.17
2019-05-03T10:43:24.853Z,52.19
2019-05-03T10:45:52.366Z,48.37
2019-05-03T10:48:19.622Z,48.57
2019-05-03T10:50:46.990Z,46.09
2019-05-03T10:53:21.104Z,47.18
2019-05-03T10:56:06.575Z,45.85
2019-05-03T10:58:35.655Z,46.99
2019-05-03T11:01:04.965Z,47.34
2019-05-03T11:03:34.312Z,48.47
2019-05-03T11:06:01.949Z,41.52
2019-05-03T11:08:30.164Z,45.09
2019-05-03T11:10:57.765Z,44.04
2019-05-03T11:13:26.495Z,42.02
2019-05-03T11:15:54.896Z,41.20
2019-05-03T11:18:25.175Z,42.19
2019-05-03T11:20:54.507Z,43.54
2019-05-03T11:23:21.852Z,44.81
2019-05-03T11:25:49.155Z,43.46
2019-05-03T11:28:21.368Z,45.14
2019-05-03T11:30:55.590Z,49.63
2019-05-03T11:33:27.355Z,46.92
2019-05-03T11:36:31.697Z,45.97
2019-05-03T11:38:58.514Z,47.29
2019-05-03T11:41:32.472Z,44.88
2019-05-03T11:44:17.489Z,44.90
2019-05-03T11:46:44.933Z,46.24
2019-05-03T11:49:14.791Z,46.59
2019-05-03T11:51:42.161Z,49.82
2019-05-03T11:54:09.433Z,47.50
2019-05-03T11:56:40.410Z,46.65
2019-05-03T11:59:07.984Z,47.34
2019-05-03T12:01:51.687Z,46.23
2019-05-03T12:04:19.385Z,41.41
2019-05-03T12:06:46.954Z,43.19
2019-05-03T12:09:15.480Z,43.19
2019-05-03T12:11:42.990Z,40.90
2019-05-03T12:14:11.055Z,43.29
2019-05-03T12:17:11.949Z,43.83
2019-05-03T12:19:16.733Z,43.31
2019-05-03T12:21:44.238Z,44.28
2019-05-03T12:24:15.905Z,46.87
2019-05-03T12:26:46.838Z,49.01
2019-05-03T12:29:15.233Z,49.29
2019-05-03T12:31:42.336Z,45.97
2019-05-03T12:34:09.782Z,46.51
2019-05-03T12:36:39.154Z,51.51
2019-05-03T12:41:20.698Z,46.02
2019-05-03T12:43:48.031Z,44.46
2019-05-03T12:46:16.900Z,40.86
2019-05-03T12:48:44.828Z,44.59
2019-05-03T12:51:13.031Z,42.50
2019-05-03T12:53:41.501Z,41.89
2019-05-03T12:56:12.776Z,44.34
2019-05-03T12:58:55.217Z,44.79
2019-05-03T13:01:47.556Z,47.94
2019-05-03T13:04:18.886Z,43.19
2019-05-03T13:06:51.433Z,43.92
2019-05-03T13:09:18.892Z,45.16
2019-05-03T13:11:55.191Z,46.79
2019-05-03T13:14:17.255Z,41.91
2019-05-03T13:16:44.677Z,39.83
2019-05-03T13:19:12.044Z,38.96
2019-05-03T13:21:39.430Z,39.28
2019-05-03T13:24:06.782Z,37.05
2019-05-03T13:26:35.019Z,39.00
2019-05-03T13:29:02.554Z,39.24
2019-05-03T13:31:30.840Z,39.57
2019-05-03T13:33:58.187Z,40.08
2019-05-03T13:36:25.630Z,41.94
2019-05-03T13:38:55.852Z,44.12
2019-05-03T13:41:22.092Z,42.34
2019-05-03T13:43:49.371Z,42.82
2019-05-03T13:46:16.683Z,45.27
2019-05-03T13:48:46.651Z,42.84
2019-05-03T13:51:14.744Z,39.21
2019-05-03T13:53:42.265Z,39.48
2019-05-03T13:56:09.813Z,40.42
2019-05-03T13:58:37.210Z,36.53
2019-05-03T14:01:06.044Z,37.81
2019-05-03T14:03:35.181Z,39.49
2019-05-03T14:06:07.645Z,43.20
2019-05-03T14:08:34.996Z,41.50
2019-05-03T14:11:02.510Z,42.01
2019-05-03T14:13:29.785Z,41.36
2019-05-03T14:15:57.048Z,44.21
2019-05-03T14:18:26.200Z,35.27
2019-05-03T14:21:14.960Z,35.58
2019-05-03T14:24:00.272Z,34.88
2019-05-03T14:26:27.625Z,39.73
2019-05-03T14:28:55.020Z,40.11
2019-05-03T14:31:22.357Z,40.99
2019-05-03T14:33:49.676Z,41.12
2019-05-03T14:36:17.035Z,41.41
2019-05-03T14:38:46.891Z,42.09
2019-05-03T14:41:15.102Z,43.81
2019-05-03T14:43:42.542Z,41.94
2019-05-03T14:46:09.891Z,40.78
2019-05-03T14:48:37.273Z,42.49
2019-05-03T14:51:05.507Z,44.27
2019-05-03T14:53:40.032Z,45.03
2019-05-03T14:56:14.947Z,45.24
2019-05-03T14:59:09.775Z,43.71
2019-05-03T15:02:11.552Z,44.08
2019-05-03T15:04:39.003Z,45.18
2019-05-03T15:07:06.266Z,45.24
2019-05-03T15:09:35.343Z,44.89
2019-05-03T15:12:04.930Z,46.33
2019-05-03T15:14:32.071Z,47.62
2019-05-03T15:17:01.270Z,48.63
2019-05-03T15:19:28.504Z,47.53
2019-05-03T15:21:55.836Z,45.70
2019-05-03T15:24:25.073Z,45.82
2019-05-03T15:26:52.257Z,44.31
2019-05-03T15:29:19.646Z,49.99
2019-05-03T15:31:47.172Z,45.32
2019-05-03T15:34:15.242Z,46.80
2019-05-03T15:36:44.924Z,48.08
2019-05-03T15:39:12.193Z,45.98
2019-05-03T15:41:39.593Z,46.68
2019-05-03T15:44:22.456Z,47.77
2019-05-03T15:46:54.749Z,48.81
2019-05-03T15:49:25.477Z,50.08
2019-05-03T15:51:53.832Z,50.17
2019-05-03T15:54:20.871Z,48.97
2019-05-03T15:56:48.154Z,50.04
2019-05-03T15:59:15.489Z,50.01
2019-05-03T16:01:42.739Z,50.81
2019-05-03T16:04:10.268Z,51.29
2019-05-03T16:06:37.666Z,53.44
2019-05-03T16:09:05.999Z,51.54
2019-05-03T16:11:34.419Z,53.15
2019-05-03T16:14:01.847Z,53.33
2019-05-03T16:16:29.168Z,52.44
2019-05-03T16:18:58.469Z,52.00
2019-05-03T16:21:25.855Z,53.38
2019-05-03T16:23:55.366Z,51.30
2019-05-03T16:26:22.486Z,50.36
2019-05-03T16:28:55.455Z,49.55
2019-05-03T16:31:24.838Z,50.94
2019-05-03T16:33:52.647Z,48.98
2019-05-03T16:36:20.042Z,49.45
2019-05-03T16:38:47.582Z,49.99
2019-05-03T16:41:17.684Z,50.83
2019-05-03T16:43:45.566Z,49.67
2019-05-03T16:46:14.543Z,48.97
2019-05-03T16:48:42.161Z,52.57
2019-05-03T16:51:09.523Z,52.77
2019-05-03T16:53:36.905Z,52.67
2019-05-03T16:56:06.070Z,49.79
2019-05-03T16:58:35.224Z,50.28
2019-05-03T17:01:02.735Z,48.04
2019-05-03T17:03:41.469Z,50.16
2019-05-03T17:06:23.588Z,48.91
2019-05-03T17:09:05.112Z,47.53
2019-05-03T17:11:34.686Z,49.94
2019-05-03T17:14:05.026Z,48.47
2019-05-03T17:16:34.334Z,51.82
2019-05-03T17:19:05.794Z,49.87
2019-05-03T17:21:34.979Z,50.57
2019-05-03T17:24:04.364Z,50.69
2019-05-03T17:26:31.825Z,49.99
2019-05-03T17:28:59.261Z,50.27
2019-05-03T17:31:26.606Z,51.29
2019-05-03T17:33:56.689Z,50.74
2019-05-03T17:36:25.027Z,49.72
2019-05-03T17:38:55.523Z,50.65
2019-05-03T17:41:41.023Z,51.39
2019-05-03T17:44:14.415Z,50.78
2019-05-03T17:46:41.739Z,50.61
2019-05-03T17:49:09.095Z,52.29
2019-05-03T17:52:01.998Z,51.76
2019-05-03T17:55:00.968Z,51.17
2019-05-03T17:57:46.631Z,51.29
2019-05-03T18:00:34.962Z,53.07
2019-05-03T18:03:04.723Z,52.48
2019-05-03T18:05:55.615Z,53.66
2019-05-03T18:08:48.495Z,53.93
2019-05-03T18:11:19.602Z,53.59
2019-05-03T18:13:46.854Z,54.64
2019-05-03T18:16:14.227Z,54.16
2019-05-03T18:18:41.480Z,54.48
2019-05-03T18:21:08.861Z,54.23
2019-05-03T18:23:36.121Z,55.79
2019-05-03T18:26:05.145Z,54.46
2019-05-03T18:28:32.678Z,55.92
2019-05-03T18:30:59.943Z,55.94
2019-05-03T18:33:27.230Z,57.06
2019-05-03T18:35:55.015Z,58.05
2019-05-03T18:38:25.250Z,56.76
2019-05-03T18:40:52.742Z,56.84
2019-05-03T18:43:30.544Z,56.54
2019-05-03T18:46:08.866Z,57.11
2019-05-03T18:48:36.194Z,57.49
2019-05-03T18:51:05.323Z,58.09
2019-05-03T18:53:34.366Z,57.69
2019-05-03T18:56:01.825Z,59.00
2019-05-03T18:58:29.136Z,57.56
2019-05-03T19:00:56.411Z,57.49
2019-05-03T19:03:25.203Z,58.85
2019-05-03T19:05:55.555Z,58.10
2019-05-03T19:08:40.889Z,59.23
2019-05-03T19:11:15.118Z,59.51
2019-05-03T19:13:52.708Z,59.16
2019-05-03T19:16:45.645Z,59.53
2019-05-03T19:19:14.255Z,59.55
2019-05-03T19:21:41.534Z,59.67
2019-05-03T19:24:08.814Z,59.02
2019-05-03T19:26:36.074Z,59.38
2019-05-03T19:29:04.451Z,59.57
2019-05-03T19:31:31.953Z,60.07
2019-05-03T19:33:59.319Z,61.13
2019-05-03T19:36:26.717Z,60.69
2019-05-03T19:38:54.674Z,60.38
2019-05-03T19:41:22.087Z,61.47
2019-05-03T19:43:49.417Z,60.94
2019-05-03T19:46:16.750Z,60.52
2019-05-03T19:48:45.336Z,60.96
2019-05-03T19:51:12.675Z,60.55
2019-05-03T19:53:48.451Z,60.00
2019-05-03T19:56:16.608Z,60.21
2019-05-03T19:58:44.180Z,60.89
2019-05-03T20:01:38.702Z,60.55
2019-05-03T20:04:29.173Z,60.31
2019-05-03T20:07:06.953Z,60.77
2019-05-03T20:09:35.029Z,60.86
2019-05-03T20:12:04.510Z,61.34
2019-05-03T20:14:31.937Z,60.69
2019-05-03T20:16:59.375Z,61.03
2019-05-03T20:19:26.793Z,61.29
2019-05-03T20:21:56.640Z,61.54
2019-05-03T20:24:25.216Z,60.70
2019-05-03T20:26:52.570Z,61.94
2019-05-03T20:29:19.950Z,61.35
2019-05-03T20:31:47.233Z,61.69
2019-05-03T20:34:15.841Z,62.08
2019-05-03T20:36:45.234Z,61.61
2019-05-03T20:39:12.502Z,61.62
2019-05-03T20:41:39.974Z,61.90
2019-05-03T20:44:15.893Z,62.61
2019-05-03T20:47:11.961Z,62.75
2019-05-03T20:49:39.330Z,62.32
2019-05-03T20:52:06.611Z,62.79
2019-05-03T20:54:35.147Z,63.12
2019-05-03T20:57:02.442Z,64.26
2019-05-03T20:59:41.952Z,63.60
2019-05-03T21:01:58.979Z,64.35
2019-05-03T21:04:26.355Z,66.53
2019-05-03T21:06:55.268Z,67.46
2019-05-03T21:09:22.684Z,67.92
2019-05-03T21:11:50.005Z,68.08
2019-05-03T21:14:17.288Z,67.85
2019-05-03T21:17:04.476Z,68.99
2019-05-03T21:19:49.744Z,69.87
2019-05-03T21:22:20.074Z,71.41
2019-05-03T21:25:03.998Z,72.15
2019-05-03T21:27:31.653Z,73.53
2019-05-03T21:29:59.352Z,72.28
2019-05-03T21:32:26.676Z,72.07
2019-05-03T21:34:55.749Z,73.14
2019-05-03T21:37:24.498Z,71.83
2019-05-03T21:39:52.184Z,73.06
2019-05-03T21:42:19.529Z,73.24
2019-05-03T21:44:46.809Z,73.33
2019-05-03T21:47:29.356Z,75.38
2019-05-03T21:49:57.394Z,74.00
2019-05-03T21:52:24.966Z,73.79
2019-05-03T21:54:52.365Z,74.78
2019-05-03T21:57:19.660Z,74.84
2019-05-03T21:59:46.948Z,75.06
2019-05-03T22:02:15.398Z,75.88
2019-05-03T22:04:44.439Z,75.65
2019-05-03T22:07:11.934Z,77.08
2019-05-03T22:09:39.183Z,77.10
2019-05-03T22:12:06.439Z,75.90
2019-05-03T22:14:39.870Z,77.03
2019-05-03T22:17:25.677Z,77.62
2019-05-03T22:19:58.505Z,77.34
2019-05-03T22:22:45.696Z,78.03
2019-05-03T22:25:15.095Z,77.79
2019-05-03T22:27:42.827Z,78.39
2019-05-03T22:30:11.073Z,78.55
2019-05-03T22:32:38.348Z,78.16
2019-05-03T22:35:06.771Z,79.00
2019-05-03T22:37:35.448Z,79.24
2019-05-03T22:40:05.221Z,79.65
2019-05-03T22:42:34.419Z,79.48
2019-05-03T22:45:01.660Z,78.56
2019-05-03T22:47:29.027Z,79.26
2019-05-03T22:49:56.418Z,79.28
2019-05-03T22:52:25.616Z,79.37
2019-05-03T22:54:53.035Z,79.44
2019-05-03T22:57:20.534Z,79.64
2019-05-03T22:59:48.112Z,80.06
2019-05-03T23:02:17.235Z,80.54
2019-05-03T23:04:45.181Z,80.38
2019-05-03T23:07:14.675Z,79.78
2019-05-03T23:09:41.909Z,80.52
2019-05-03T23:12:10.596Z,80.46
2019-05-03T23:14:37.982Z,80.51
2019-05-03T23:17:05.475Z,80.46
2019-05-03T23:19:34.688Z,80.04
2019-05-03T23:22:24.599Z,80.15
2019-05-03T23:24:54.847Z,81.21
2019-05-03T23:27:22.280Z,81.92
2019-05-03T23:29:49.536Z,81.36
2019-05-03T23:32:16.809Z,81.72
2019-05-03T23:34:46.262Z,82.54
2019-05-03T23:37:14.777Z,82.89
2019-05-03T23:39:44.627Z,83.11
2019-05-03T23:42:12.260Z,82.87
2019-05-03T23:44:39.669Z,83.67
2019-05-03T23:47:14.564Z,83.73
2019-05-03T23:49:41.963Z,83.87
2019-05-03T23:52:37.773Z,84.24
2019-05-03T23:55:14.942Z,85.14
2019-05-03T23:57:42.388Z,85.81
